createdAt,value
2023-05-02T00:01:31.132Z,101368.06
2023-05-02T00:03:33.311Z,101369.56
2023-05-02T00:05:35.017Z,101373.53
2023-05-02T00:07:36.738Z,101376.88
2023-05-02T00:09:38.665Z,101374.56
2023-05-02T00:11:40.678Z,101376.88
2023-05-02T00:13:44.026Z,101380.03
2023-05-02T00:15:45.850Z,101372.28
2023-05-02T00:17:47.888Z,101380.88
2023-05-02T00:19:49.621Z,101375.00
2023-05-02T00:21:51.538Z,101378.13
2023-05-02T00:23:53.596Z,101371.00
2023-05-02T00:25:55.244Z,101365.94
2023-05-02T00:27:56.879Z,101369.06
2023-05-02T00:30:00.669Z,101371.19
2023-05-02T00:32:02.812Z,101362.56
2023-05-02T00:34:04.423Z,101367.38
2023-05-02T00:36:13.940Z,101371.19
2023-05-02T00:38:15.565Z,101363.59
2023-05-02T00:40:17.664Z,101376.59
2023-05-02T00:42:19.530Z,101369.88
2023-05-02T00:44:21.400Z,101373.00
2023-05-02T00:46:24.497Z,101366.28
2023-05-02T00:48:26.545Z,101373.00
2023-05-02T00:50:29.707Z,101367.94
2023-05-02T00:52:31.582Z,101373.81
2023-05-02T00:54:33.605Z,101369.59
2023-05-02T00:56:35.482Z,101368.13
2023-05-02T00:58:40.450Z,101368.53
2023-05-02T01:00:55.353Z,101369.78
2023-05-02T01:03:09.537Z,101379.22
2023-05-02T01:05:15.553Z,101374.16
2023-05-02T01:07:41.002Z,101370.16
2023-05-02T01:09:57.930Z,101376.03
2023-05-02T01:12:02.011Z,101374.75
2023-05-02T01:14:09.190Z,101374.31
2023-05-02T01:16:12.548Z,101378.28
2023-05-02T01:18:18.639Z,101384.97
2023-05-02T01:20:23.474Z,101379.94
2023-05-02T01:22:28.590Z,101377.59
2023-05-02T01:24:35.961Z,101377.16
2023-05-02T01:26:51.489Z,101375.03
2023-05-02T01:29:09.195Z,101379.84
2023-05-02T01:31:12.463Z,101377.72
2023-05-02T01:33:17.287Z,101376.41
2023-05-02T01:35:21.677Z,101376.81
2023-05-02T01:37:24.836Z,101377.22
2023-05-02T01:39:27.355Z,101378.66
2023-05-02T01:41:32.376Z,101377.19
2023-05-02T01:43:36.537Z,101377.56
2023-05-02T01:45:44.059Z,101370.66
2023-05-02T01:47:46.727Z,101368.72
2023-05-02T01:49:48.602Z,101372.66
2023-05-02T01:51:52.196Z,101379.59
2023-05-02T01:53:54.570Z,101372.84
2023-05-02T01:55:59.052Z,101383.09
2023-05-02T01:58:01.761Z,101385.19
2023-05-02T02:00:04.952Z,101375.91
2023-05-02T02:02:11.921Z,101375.28
2023-05-02T02:04:15.715Z,101369.38
2023-05-02T02:06:19.750Z,101372.50
2023-05-02T02:08:21.488Z,101372.69
2023-05-02T02:10:26.617Z,101374.09
2023-05-02T02:12:32.368Z,101382.47
2023-05-02T02:14:37.197Z,101396.47
2023-05-02T02:16:41.631Z,101392.47
2023-05-02T02:18:45.283Z,101391.81
2023-05-02T02:20:48.302Z,101390.53
2023-05-02T02:22:51.819Z,101399.09
2023-05-02T02:24:54.693Z,101391.31
2023-05-02T02:26:56.526Z,101411.59
2023-05-02T02:28:58.525Z,101408.22
2023-05-02T02:31:00.396Z,101411.34
2023-05-02T02:33:02.058Z,101412.56
2023-05-02T02:35:08.713Z,101413.78
2023-05-02T02:37:16.625Z,101421.31
2023-05-02T02:39:36.046Z,101421.50
2023-05-02T02:41:42.859Z,101420.19
2023-05-02T02:43:53.588Z,101421.44
2023-05-02T02:46:02.913Z,101422.66
2023-05-02T02:48:17.346Z,101422.00
2023-05-02T02:50:30.493Z,101428.47
2023-05-02T02:52:40.805Z,101431.59
2023-05-02T02:54:47.379Z,101433.66
2023-05-02T02:56:56.545Z,101440.31
2023-05-02T02:59:04.981Z,101429.66
2023-05-02T03:01:15.344Z,101439.84
2023-05-02T03:03:18.640Z,101433.56
2023-05-02T03:05:23.030Z,101442.78
2023-05-02T03:07:28.103Z,101437.53
2023-05-02T03:09:41.014Z,101446.53
2023-05-02T03:11:42.977Z,101445.91
2023-05-02T03:13:45.227Z,101449.66
2023-05-02T03:16:25.176Z,101455.72
2023-05-02T03:18:27.301Z,101460.69
2023-05-02T03:20:30.854Z,101460.06
2023-05-02T03:22:32.653Z,101458.38
2023-05-02T03:24:34.464Z,101460.44
2023-05-02T03:26:36.280Z,101458.75
2023-05-02T03:28:38.075Z,101469.81
2023-05-02T03:30:39.941Z,101477.31
2023-05-02T03:32:41.760Z,101486.50
2023-05-02T03:34:43.947Z,101485.88
2023-05-02T03:36:47.086Z,101486.72
2023-05-02T03:38:48.989Z,101489.63
2023-05-02T03:40:50.802Z,101493.19
2023-05-02T03:42:53.018Z,101490.47
2023-05-02T03:44:54.964Z,101495.91
2023-05-02T03:46:56.764Z,101493.19
2023-05-02T03:48:58.778Z,101498.41
2023-05-02T03:51:00.942Z,101493.81
2023-05-02T03:53:04.232Z,101495.53
2023-05-02T03:55:07.069Z,101499.94
2023-05-02T03:57:08.994Z,101496.16
2023-05-02T03:59:10.849Z,101499.56
2023-05-02T04:01:16.832Z,101502.06
2023-05-02T04:03:18.730Z,101494.75
2023-05-02T04:05:20.807Z,101501.03
2023-05-02T04:07:22.882Z,101502.56
2023-05-02T04:09:28.158Z,101497.94
2023-05-02T04:11:30.579Z,101501.31
2023-05-02T04:13:32.216Z,101505.75
2023-05-02T04:15:33.972Z,101509.94
2023-05-02T04:17:35.884Z,101507.03
2023-05-02T04:19:37.749Z,101512.28
2023-05-02T04:21:39.549Z,101512.13
2023-05-02T04:23:41.208Z,101522.59
2023-05-02T04:25:51.312Z,101515.09
2023-05-02T04:27:52.921Z,101530.22
2023-05-02T04:29:54.955Z,101525.41
2023-05-02T04:31:56.710Z,101525.03
2023-05-02T04:33:58.674Z,101526.53
2023-05-02T04:36:00.309Z,101532.44
2023-05-02T04:38:02.162Z,101527.47
2023-05-02T04:40:04.531Z,101536.28
2023-05-02T04:42:08.056Z,101537.75
2023-05-02T04:44:09.582Z,101543.88
2023-05-02T04:46:11.386Z,101536.16
2023-05-02T04:48:13.066Z,101537.66
2023-05-02T04:50:15.302Z,101541.88
2023-05-02T04:52:16.953Z,101539.63
2023-05-02T04:54:19.164Z,101546.56
2023-05-02T04:56:21.012Z,101544.28
2023-05-02T04:58:24.511Z,101539.50
2023-05-02T05:00:26.233Z,101550.03
2023-05-02T05:02:28.163Z,101547.09
2023-05-02T05:04:29.976Z,101547.53
2023-05-02T05:06:31.945Z,101549.88
2023-05-02T05:08:33.730Z,101556.84
2023-05-02T05:10:35.396Z,101562.91
2023-05-02T05:12:39.449Z,101565.25
2023-05-02T05:14:42.439Z,101568.44
2023-05-02T05:16:44.614Z,101574.56
2023-05-02T05:18:47.782Z,101572.47
2023-05-02T05:20:51.819Z,101578.38
2023-05-02T05:22:53.453Z,101581.75
2023-05-02T05:24:55.288Z,101579.66
2023-05-02T05:26:57.329Z,101583.91
2023-05-02T05:28:59.210Z,101585.41
2023-05-02T05:31:07.063Z,101590.28
2023-05-02T05:33:08.723Z,101588.34
2023-05-02T05:35:11.204Z,101592.78
2023-05-02T05:37:12.855Z,101595.13
2023-05-02T05:39:14.517Z,101602.25
2023-05-02T05:41:16.345Z,101617.59
2023-05-02T05:43:18.200Z,101615.72
2023-05-02T05:45:20.037Z,101637.91
2023-05-02T05:47:23.507Z,101629.22
2023-05-02T05:49:26.374Z,101634.03
2023-05-02T05:51:29.511Z,101641.94
2023-05-02T05:53:31.544Z,101641.69
2023-05-02T05:55:33.787Z,101650.25
2023-05-02T05:57:37.260Z,101647.06
2023-05-02T05:59:38.790Z,101654.75
2023-05-02T06:01:41.723Z,101658.91
2023-05-02T06:03:44.952Z,101666.63
2023-05-02T06:05:46.614Z,101676.00
2023-05-02T06:07:48.526Z,101681.81
2023-05-02T06:09:50.072Z,101684.38
2023-05-02T06:11:51.747Z,101689.16
2023-05-02T06:13:53.974Z,101690.00
2023-05-02T06:15:55.652Z,101688.28
2023-05-02T06:17:57.603Z,101697.53
2023-05-02T06:20:01.143Z,101709.44
2023-05-02T06:22:03.056Z,101705.03
2023-05-02T06:24:05.470Z,101711.31
2023-05-02T06:26:07.132Z,101708.59
2023-05-02T06:28:08.753Z,101707.56
2023-05-02T06:30:11.951Z,101700.88
2023-05-02T06:32:13.537Z,101716.84
2023-05-02T06:34:15.124Z,101714.13
2023-05-02T06:36:18.139Z,101725.88
2023-05-02T06:38:19.826Z,101733.00
2023-05-02T06:40:22.163Z,101732.16
2023-05-02T06:42:23.744Z,101731.50
2023-05-02T06:44:25.503Z,101737.16
2023-05-02T06:46:29.264Z,101743.81
2023-05-02T06:48:31.014Z,101750.94
2023-05-02T06:50:33.008Z,101757.44
2023-05-02T06:52:36.105Z,101762.03
2023-05-02T06:54:38.071Z,101764.56
2023-05-02T06:56:39.704Z,101768.13
2023-05-02T06:58:41.314Z,101772.72
2023-05-02T07:00:42.980Z,101780.88
2023-05-02T07:02:46.028Z,101785.31
2023-05-02T07:04:48.013Z,101783.22
2023-05-02T07:06:49.784Z,101789.19
2023-05-02T07:08:52.857Z,101799.88
2023-05-02T07:10:54.549Z,101803.06
2023-05-02T07:12:56.081Z,101810.69
2023-05-02T07:14:57.707Z,101811.16
2023-05-02T07:16:59.428Z,101815.38
2023-05-02T07:19:01.305Z,101817.91
2023-05-02T07:21:03.048Z,101822.69
2023-05-02T07:23:04.709Z,101820.94
2023-05-02T07:25:08.888Z,101833.97
2023-05-02T07:27:11.534Z,101829.00
2023-05-02T07:29:13.346Z,101841.03
2023-05-02T07:31:16.960Z,101849.69
2023-05-02T07:33:19.843Z,101851.00
2023-05-02T07:35:21.469Z,101856.25
2023-05-02T07:37:23.280Z,101858.66
2023-05-02T07:39:25.479Z,101855.72
2023-05-02T07:41:28.943Z,101872.44
2023-05-02T07:43:30.533Z,101863.22
2023-05-02T07:45:32.470Z,101856.44
2023-05-02T07:47:34.106Z,101869.13
2023-05-02T07:49:35.841Z,101874.47
2023-05-02T07:51:37.335Z,101871.44
2023-05-02T07:53:39.362Z,101879.75
2023-05-02T07:55:40.883Z,101874.38
2023-05-02T07:57:44.115Z,101884.13
2023-05-02T07:59:46.267Z,101881.09
2023-05-02T08:01:48.045Z,101893.56
2023-05-02T08:03:49.787Z,101899.53
2023-05-02T08:05:51.620Z,101901.72
2023-05-02T08:07:53.286Z,101907.53
2023-05-02T08:09:55.070Z,101911.63
2023-05-02T08:11:56.837Z,101918.06
2023-05-02T08:13:59.800Z,101916.22
2023-05-02T08:16:01.437Z,101917.16
2023-05-02T08:18:03.334Z,101923.97
2023-05-02T08:20:06.164Z,101929.09
2023-05-02T08:22:07.816Z,101929.81
2023-05-02T08:24:09.362Z,101933.47
2023-05-02T08:26:11.183Z,101937.97
2023-05-02T08:28:12.809Z,101935.06
2023-05-02T08:30:15.948Z,101940.66
2023-05-02T08:32:17.853Z,101944.88
2023-05-02T08:34:19.482Z,101948.66
2023-05-02T08:36:21.290Z,101953.78
2023-05-02T08:38:23.268Z,101953.59
2023-05-02T08:40:33.890Z,101977.59
2023-05-02T08:42:43.914Z,101971.25
2023-05-02T08:44:45.808Z,101965.38
2023-05-02T08:46:51.639Z,101971.50
2023-05-02T08:48:54.005Z,101978.69
2023-05-02T08:50:56.676Z,101975.28
2023-05-02T08:52:59.500Z,101982.69
2023-05-02T08:55:02.484Z,101988.16
2023-05-02T08:57:05.497Z,101988.59
2023-05-02T08:59:07.273Z,101995.75
2023-05-02T09:01:13.783Z,101998.72
2023-05-02T09:03:28.161Z,101997.63
2023-05-02T09:05:37.897Z,102001.47
2023-05-02T09:07:47.432Z,102006.97
2023-05-02T09:09:49.291Z,102008.25
2023-05-02T09:11:52.484Z,102014.56
2023-05-02T09:13:54.489Z,102021.53
2023-05-02T09:16:00.497Z,102031.03
2023-05-02T09:18:02.737Z,102028.94
2023-05-02T09:20:07.652Z,102036.56
2023-05-02T09:22:09.516Z,102035.75
2023-05-02T09:24:22.163Z,102038.91
2023-05-02T09:26:25.323Z,102040.16
2023-05-02T09:28:41.426Z,102045.88
2023-05-02T09:30:43.349Z,102042.28
2023-05-02T09:32:45.941Z,102053.69
2023-05-02T09:35:07.143Z,102062.31
2023-05-02T09:37:08.985Z,102056.41
2023-05-02T09:39:12.587Z,102073.72
2023-05-02T09:41:14.646Z,102077.50
2023-05-02T09:43:16.414Z,102071.78
2023-05-02T09:45:25.548Z,102075.56
2023-05-02T09:47:27.604Z,102083.81
2023-05-02T09:49:43.115Z,102079.59
2023-05-02T09:51:47.364Z,102079.56
2023-05-02T09:53:49.753Z,102089.06
2023-05-02T09:56:00.660Z,102081.03
2023-05-02T09:58:02.318Z,102087.13
2023-05-02T10:00:04.850Z,102086.28
2023-05-02T10:02:07.340Z,102087.38
2023-05-02T10:04:13.156Z,102083.16
2023-05-02T10:06:15.945Z,102087.19
2023-05-02T10:08:19.530Z,102082.38
2023-05-02T10:10:21.385Z,102087.91
2023-05-02T10:12:26.901Z,102083.91
2023-05-02T10:14:29.562Z,102089.41
2023-05-02T10:16:36.728Z,102088.78
2023-05-02T10:18:42.854Z,102104.59
2023-05-02T10:20:56.080Z,102099.53
2023-05-02T10:23:00.338Z,102106.94
2023-05-02T10:25:04.224Z,102111.34
2023-05-02T10:27:06.509Z,102113.03
2023-05-02T10:29:08.517Z,102119.59
2023-05-02T10:31:11.137Z,102116.41
2023-05-02T10:33:14.874Z,102115.59
2023-05-02T10:35:17.249Z,102122.13
2023-05-02T10:37:19.840Z,102114.06
2023-05-02T10:39:21.938Z,102114.69
2023-05-02T10:41:29.066Z,102118.91
2023-05-02T10:43:34.397Z,102118.25
2023-05-02T10:45:37.484Z,102122.50
2023-05-02T10:47:39.102Z,102132.84
2023-05-02T10:49:50.410Z,102134.06
2023-05-02T10:51:52.270Z,102133.66
2023-05-02T10:53:54.425Z,102133.41
2023-05-02T10:56:16.792Z,102139.28
2023-05-02T10:58:23.249Z,102125.97
2023-05-02T11:00:26.158Z,102126.13
2023-05-02T11:02:50.075Z,102126.72
2023-05-02T11:05:03.595Z,102132.44
2023-05-02T11:07:18.592Z,102130.53
2023-05-02T11:09:33.226Z,102128.34
2023-05-02T11:11:41.991Z,102137.69
2023-05-02T11:13:53.122Z,102134.59
2023-05-02T11:15:55.402Z,102139.84
2023-05-02T11:18:01.329Z,102142.59
2023-05-02T11:20:24.537Z,102151.50
2023-05-02T11:22:33.921Z,102144.34
2023-05-02T11:24:39.190Z,102149.84
2023-05-02T11:26:41.450Z,102149.47
2023-05-02T11:28:44.360Z,102151.56
2023-05-02T11:30:47.451Z,102154.31
2023-05-02T11:33:14.892Z,102153.06
2023-05-02T11:35:17.749Z,102146.31
2023-05-02T11:37:20.633Z,102161.31
2023-05-02T11:39:22.576Z,102156.91
2023-05-02T11:41:38.068Z,102160.66
2023-05-02T11:43:39.911Z,102155.97
2023-05-02T11:45:42.207Z,102160.88
2023-05-02T11:47:45.899Z,102160.88
2023-05-02T11:49:47.988Z,102162.31
2023-05-02T11:51:50.015Z,102164.88
2023-05-02T11:53:52.735Z,102158.06
2023-05-02T11:55:56.108Z,102166.31
2023-05-02T11:57:59.267Z,102164.88
2023-05-02T12:00:01.106Z,102169.31
2023-05-02T12:02:02.751Z,102167.88
2023-05-02T12:04:07.966Z,102165.31
2023-05-02T12:06:11.482Z,102176.53
2023-05-02T12:08:18.965Z,102179.94
2023-05-02T12:10:20.840Z,102186.72
2023-05-02T12:12:22.524Z,102194.97
2023-05-02T12:14:28.474Z,102192.88
2023-05-02T12:16:30.497Z,102195.22
2023-05-02T12:18:32.903Z,102207.50
2023-05-02T12:20:36.489Z,102207.97
2023-05-02T12:22:38.322Z,102204.81
2023-05-02T12:24:40.066Z,102206.22
2023-05-02T12:26:41.693Z,102204.28
2023-05-02T12:28:48.892Z,102204.03
2023-05-02T12:30:51.796Z,102206.97
2023-05-02T12:32:56.538Z,102205.66
2023-05-02T12:34:58.678Z,102208.94
2023-05-02T12:37:01.604Z,102208.25
2023-05-02T12:39:03.297Z,102209.44
2023-05-02T12:41:05.698Z,102207.91
2023-05-02T12:43:07.360Z,102217.34
2023-05-02T12:45:17.566Z,102214.53
2023-05-02T12:47:20.126Z,102206.13
2023-05-02T12:49:21.809Z,102207.75
2023-05-02T12:51:23.464Z,102209.53
2023-05-02T12:53:43.667Z,102209.34
2023-05-02T12:55:45.508Z,102214.09
2023-05-02T12:57:47.387Z,102216.53
2023-05-02T12:59:52.156Z,102217.53
2023-05-02T13:01:53.924Z,102216.91
2023-05-02T13:03:55.732Z,102226.75
2023-05-02T13:05:57.625Z,102231.47
2023-05-02T13:07:59.272Z,102220.97
2023-05-02T13:10:02.550Z,102227.47
2023-05-02T13:12:04.994Z,102227.25
2023-05-02T13:14:06.642Z,102224.69
2023-05-02T13:16:08.857Z,102235.16
2023-05-02T13:18:10.926Z,102248.19
2023-05-02T13:20:13.333Z,102243.38
2023-05-02T13:22:14.923Z,102247.88
2023-05-02T13:24:16.782Z,102257.09
2023-05-02T13:26:19.799Z,102256.53
2023-05-02T13:28:21.539Z,102263.22
2023-05-02T13:30:23.080Z,102260.91
2023-05-02T13:32:24.652Z,102259.16
2023-05-02T13:34:26.426Z,102257.59
2023-05-02T13:36:28.171Z,102259.25
2023-05-02T13:38:29.941Z,102267.69
2023-05-02T13:40:31.509Z,102268.44
2023-05-02T13:42:35.951Z,102275.88
2023-05-02T13:44:37.933Z,102271.13
2023-05-02T13:46:39.615Z,102276.63
2023-05-02T13:48:41.329Z,102276.78
2023-05-02T13:50:42.919Z,102271.28
2023-05-02T13:52:45.479Z,102279.78
2023-05-02T13:54:48.964Z,102275.56
2023-05-02T13:56:50.507Z,102284.53
2023-05-02T13:58:53.806Z,102277.19
2023-05-02T14:00:55.310Z,102279.78
2023-05-02T14:02:57.075Z,102275.59
2023-05-02T14:04:59.105Z,102279.88
2023-05-02T14:07:00.720Z,102278.56
2023-05-02T14:09:03.350Z,102270.28
2023-05-02T14:11:07.190Z,102277.13
2023-05-02T14:13:09.036Z,102279.25
2023-05-02T14:15:13.022Z,102289.91
2023-05-02T14:17:14.621Z,102282.06
2023-05-02T14:19:16.339Z,102285.75
2023-05-02T14:21:18.241Z,102278.41
2023-05-02T14:23:19.936Z,102289.72
2023-05-02T14:25:21.961Z,102290.41
2023-05-02T14:27:23.869Z,102291.31
2023-05-02T14:29:25.715Z,102296.28
2023-05-02T14:31:29.131Z,102298.03
2023-05-02T14:33:31.052Z,102292.56
2023-05-02T14:35:33.047Z,102293.69
2023-05-02T14:37:34.705Z,102295.47
2023-05-02T14:39:37.049Z,102288.91
2023-05-02T14:41:38.939Z,102298.72
2023-05-02T14:43:40.838Z,102299.41
2023-05-02T14:45:42.418Z,102298.34
2023-05-02T14:47:45.494Z,102301.09
2023-05-02T14:49:47.431Z,102305.75
2023-05-02T14:51:49.247Z,102305.34
2023-05-02T14:53:51.147Z,102298.19
2023-05-02T14:55:52.912Z,102306.66
2023-05-02T14:57:56.014Z,102313.41
2023-05-02T14:59:57.680Z,102305.53
2023-05-02T15:01:59.500Z,102314.63
2023-05-02T15:04:06.625Z,102314.81
2023-05-02T15:06:09.150Z,102320.28
2023-05-02T15:08:10.788Z,102318.56
2023-05-02T15:10:12.396Z,102313.44
2023-05-02T15:12:13.911Z,102319.22
2023-05-02T15:14:15.501Z,102316.47
2023-05-02T15:16:18.538Z,102325.16
2023-05-02T15:18:20.232Z,102324.34
2023-05-02T15:20:23.380Z,102324.75
2023-05-02T15:22:25.149Z,102330.50
2023-05-02T15:24:27.379Z,102326.72
2023-05-02T15:26:29.761Z,102332.47
2023-05-02T15:28:31.602Z,102330.34
2023-05-02T15:30:33.188Z,102346.69
2023-05-02T15:32:35.208Z,102343.78
2023-05-02T15:34:36.871Z,102342.94
2023-05-02T15:36:40.057Z,102339.34
2023-05-02T15:38:41.710Z,102350.16
2023-05-02T15:40:43.227Z,102338.28
2023-05-02T15:42:45.036Z,102347.00
2023-05-02T15:44:46.641Z,102340.69
2023-05-02T15:46:48.386Z,102344.38
2023-05-02T15:48:50.192Z,102335.03
2023-05-02T15:50:51.791Z,102338.47
2023-05-02T15:52:55.235Z,102350.09
2023-05-02T15:54:56.883Z,102351.16
2023-05-02T15:56:58.535Z,102350.53
2023-05-02T15:59:00.133Z,102350.59
2023-05-02T16:01:01.709Z,102350.19
2023-05-02T16:03:04.098Z,102361.00
2023-05-02T16:05:06.574Z,102361.47
2023-05-02T16:07:08.189Z,102359.78
2023-05-02T16:09:11.492Z,102358.31
2023-05-02T16:11:13.444Z,102363.81
2023-05-02T16:13:15.100Z,102359.38
2023-05-02T16:15:17.155Z,102361.47
2023-05-02T16:17:18.701Z,102371.63
2023-05-02T16:19:22.711Z,102368.22
2023-05-02T16:21:24.572Z,102366.56
2023-05-02T16:23:26.485Z,102371.63
2023-05-02T16:25:29.869Z,102379.28
2023-05-02T16:27:31.399Z,102376.97
2023-05-02T16:29:32.973Z,102375.25
2023-05-02T16:31:34.602Z,102372.75
2023-05-02T16:33:36.417Z,102375.28
2023-05-02T16:35:37.976Z,102386.31
2023-05-02T16:37:40.290Z,102381.44
2023-05-02T16:39:42.201Z,102380.38
2023-05-02T16:41:45.105Z,102382.91
2023-05-02T16:43:46.886Z,102387.16
2023-05-02T16:45:48.490Z,102389.69
2023-05-02T16:47:50.155Z,102394.78
2023-05-02T16:49:55.073Z,102397.09
2023-05-02T16:51:56.609Z,102397.13
2023-05-02T16:53:58.601Z,102391.19
2023-05-02T16:56:00.644Z,102394.16
2023-05-02T16:58:04.020Z,102393.53
2023-05-02T17:00:07.172Z,102397.34
2023-05-02T17:02:08.727Z,102399.25
2023-05-02T17:04:10.524Z,102404.75
2023-05-02T17:06:12.077Z,102406.66
2023-05-02T17:08:13.691Z,102415.53
2023-05-02T17:10:15.775Z,102413.59
2023-05-02T17:12:17.620Z,102417.00
2023-05-02T17:14:20.533Z,102411.25
2023-05-02T17:16:22.298Z,102420.97
2023-05-02T17:18:23.966Z,102422.63
2023-05-02T17:20:25.571Z,102422.22
2023-05-02T17:22:27.237Z,102427.69
2023-05-02T17:24:29.685Z,102421.34
2023-05-02T17:26:31.335Z,102422.41
2023-05-02T17:28:32.891Z,102424.38
2023-05-02T17:30:36.109Z,102430.31
2023-05-02T17:32:39.929Z,102424.41
2023-05-02T17:34:41.655Z,102430.34
2023-05-02T17:36:43.171Z,102431.19
2023-05-02T17:38:45.136Z,102435.66
2023-05-02T17:40:47.808Z,102431.59
2023-05-02T17:42:50.051Z,102437.75
2023-05-02T17:44:52.848Z,102441.78
2023-05-02T17:46:56.287Z,102431.38
2023-05-02T17:48:57.888Z,102443.69
2023-05-02T17:51:01.446Z,102436.28
2023-05-02T17:53:04.288Z,102449.16
2023-05-02T17:55:07.558Z,102447.66
2023-05-02T17:57:09.320Z,102447.00
2023-05-02T17:59:11.009Z,102449.25
2023-05-02T18:01:13.354Z,102447.72
2023-05-02T18:03:16.484Z,102454.22
2023-05-02T18:05:18.493Z,102450.53
2023-05-02T18:07:20.127Z,102460.63
2023-05-02T18:09:22.065Z,102460.34
2023-05-02T18:11:23.650Z,102468.50
2023-05-02T18:13:25.303Z,102468.41
2023-05-02T18:15:26.937Z,102466.38
2023-05-02T18:17:28.596Z,102471.97
2023-05-02T18:19:33.749Z,102481.59
2023-05-02T18:21:35.341Z,102481.25
2023-05-02T18:23:37.382Z,102480.06
2023-05-02T18:25:38.933Z,102484.19
2023-05-02T18:27:40.554Z,102481.78
2023-05-02T18:29:42.414Z,102485.84
2023-05-02T18:31:44.229Z,102485.13
2023-05-02T18:33:46.210Z,102487.13
2023-05-02T18:35:49.284Z,102484.72
2023-05-02T18:37:51.148Z,102487.53
2023-05-02T18:39:53.012Z,102495.84
2023-05-02T18:41:54.909Z,102495.94
2023-05-02T18:43:58.666Z,102493.28
2023-05-02T18:46:01.897Z,102496.16
2023-05-02T18:48:04.193Z,102501.69
2023-05-02T18:50:08.726Z,102503.50
2023-05-02T18:52:12.474Z,102509.91
2023-05-02T18:54:14.077Z,102510.81
2023-05-02T18:56:16.056Z,102510.91
2023-05-02T18:58:17.659Z,102509.94
2023-05-02T19:00:19.796Z,102517.19
2023-05-02T19:02:21.926Z,102514.53
2023-05-02T19:04:24.855Z,102515.44
2023-05-02T19:06:26.610Z,102519.94
2023-05-02T19:08:29.643Z,102517.28
2023-05-02T19:10:31.284Z,102519.88
2023-05-02T19:12:33.048Z,102524.38
2023-05-02T19:14:35.066Z,102526.13
2023-05-02T19:16:37.805Z,102524.09
2023-05-02T19:18:40.465Z,102528.78
2023-05-02T19:20:42.347Z,102532.03
2023-05-02T19:22:43.950Z,102526.63
2023-05-02T19:24:46.881Z,102529.88
2023-05-02T19:26:50.257Z,102533.34
2023-05-02T19:28:52.396Z,102535.75
2023-05-02T19:30:53.898Z,102531.88
2023-05-02T19:32:55.610Z,102532.59
2023-05-02T19:34:57.277Z,102537.72
2023-05-02T19:36:59.196Z,102531.91
2023-05-02T19:39:01.009Z,102530.75
2023-05-02T19:41:04.242Z,102544.06
2023-05-02T19:43:05.921Z,102535.59
2023-05-02T19:45:08.635Z,102542.41
2023-05-02T19:47:10.440Z,102540.22
2023-05-02T19:49:12.015Z,102546.19
2023-05-02T19:51:13.830Z,102552.16
2023-05-02T19:53:15.660Z,102549.13
2023-05-02T19:55:19.176Z,102550.50
2023-05-02T19:57:22.263Z,102545.53
2023-05-02T19:59:24.083Z,102553.22
2023-05-02T20:01:27.255Z,102552.19
2023-05-02T20:03:29.343Z,102556.13
2023-05-02T20:05:31.170Z,102558.34
2023-05-02T20:07:32.819Z,102552.53
2023-05-02T20:09:34.440Z,102556.63
2023-05-02T20:11:36.238Z,102553.53
2023-05-02T20:13:39.460Z,102566.66
2023-05-02T20:15:40.987Z,102569.06
2023-05-02T20:17:42.825Z,102571.44
2023-05-02T20:19:44.382Z,102561.03
2023-05-02T20:21:46.197Z,102567.84
2023-05-02T20:23:48.044Z,102563.94
2023-05-02T20:25:49.878Z,102564.44
2023-05-02T20:27:52.346Z,102564.09
2023-05-02T20:29:55.336Z,102576.38
2023-05-02T20:31:56.977Z,102563.25
2023-05-02T20:33:58.665Z,102571.91
2023-05-02T20:36:00.210Z,102572.41
2023-05-02T20:38:01.844Z,102569.50
2023-05-02T20:40:04.534Z,102573.56
2023-05-02T20:42:06.442Z,102568.63
2023-05-02T20:44:08.052Z,102572.69
2023-05-02T20:46:11.391Z,102582.25
2023-05-02T20:48:17.073Z,102581.00
2023-05-02T20:50:18.990Z,102586.78
2023-05-02T20:52:21.064Z,102580.97
2023-05-02T20:54:22.673Z,102578.75
2023-05-02T20:56:24.486Z,102579.25
2023-05-02T20:58:26.343Z,102586.91
2023-05-02T21:00:28.329Z,102584.66
2023-05-02T21:02:31.380Z,102589.59
2023-05-02T21:04:33.545Z,102595.34
2023-05-02T21:06:35.528Z,102596.69
2023-05-02T21:08:37.178Z,102595.31
2023-05-02T21:10:38.757Z,102596.50
2023-05-02T21:12:40.519Z,102599.69
2023-05-02T21:14:42.132Z,102595.59
2023-05-02T21:16:43.761Z,102593.31
2023-05-02T21:18:47.874Z,102591.06
2023-05-02T21:20:49.738Z,102598.69
2023-05-02T21:22:51.991Z,102603.59
2023-05-02T21:24:55.792Z,102602.22
2023-05-02T21:26:57.653Z,102602.53
2023-05-02T21:28:59.477Z,102603.00
2023-05-02T21:31:01.419Z,102605.03
2023-05-02T21:33:03.290Z,102609.78
2023-05-02T21:35:08.654Z,102604.84
2023-05-02T21:37:10.837Z,102604.44
2023-05-02T21:39:12.441Z,102611.75
2023-05-02T21:41:15.050Z,102612.22
2023-05-02T21:43:16.759Z,102612.53
2023-05-02T21:45:18.588Z,102619.16
2023-05-02T21:47:20.487Z,102613.16
2023-05-02T21:49:22.217Z,102618.94
2023-05-02T21:51:25.092Z,102623.66
2023-05-02T21:53:27.119Z,102623.97
2023-05-02T21:55:28.788Z,102617.84
2023-05-02T21:57:30.728Z,102612.88
2023-05-02T21:59:32.310Z,102624.91
2023-05-02T22:01:34.114Z,102621.47
2023-05-02T22:03:35.961Z,102628.09
2023-05-02T22:05:38.746Z,102622.97
2023-05-02T22:07:42.151Z,102626.84
2023-05-02T22:09:43.653Z,102626.16
2023-05-02T22:11:45.575Z,102628.31
2023-05-02T22:13:47.725Z,102627.59
2023-05-02T22:15:49.388Z,102628.78
2023-05-02T22:17:51.194Z,102627.25
2023-05-02T22:19:54.712Z,102634.84
2023-05-02T22:21:57.448Z,102630.53
2023-05-02T22:24:00.396Z,102633.56
2023-05-02T22:26:01.931Z,102640.19
2023-05-02T22:28:03.765Z,102637.78
2023-05-02T22:30:06.913Z,102638.91
2023-05-02T22:32:10.363Z,102634.66
2023-05-02T22:34:11.905Z,102642.13
2023-05-02T22:36:14.373Z,102641.56
2023-05-02T22:38:16.466Z,102637.28
2023-05-02T22:40:19.791Z,102638.56
2023-05-02T22:42:21.454Z,102647.88
2023-05-02T22:44:23.465Z,102645.47
2023-05-02T22:46:25.224Z,102646.63
2023-05-02T22:48:27.060Z,102651.34
2023-05-02T22:50:29.828Z,102649.81
2023-05-02T22:52:31.704Z,102650.94
2023-05-02T22:54:33.228Z,102647.69
2023-05-02T22:56:36.718Z,102656.84
2023-05-02T22:58:38.231Z,102655.28
2023-05-02T23:00:39.850Z,102648.44
2023-05-02T23:02:41.467Z,102652.16
2023-05-02T23:04:43.096Z,102653.31
2023-05-02T23:06:45.736Z,102660.75
2023-05-02T23:08:49.908Z,102658.47
2023-05-02T23:10:52.102Z,102659.63
2023-05-02T23:12:55.202Z,102660.78
2023-05-02T23:14:56.920Z,102661.94
2023-05-02T23:16:58.690Z,102662.09
2023-05-02T23:19:00.226Z,102668.66
2023-05-02T23:21:03.081Z,102665.25
2023-05-02T23:23:05.145Z,102669.13
2023-05-02T23:25:08.070Z,102671.09
2023-05-02T23:27:09.581Z,102665.13